Главная страница
METAR-TAF:

METAR-TAF

Аэропорты :

Tulita, Северо-Западные Территории, Канада

широта: 64-55N, долгота: 125-34W, высота над уровнем моря: 98 м

Текущие метеонаблюдения

Эта сводка был подготовлена 13 часа и 14 минут назад, в 23:00 UTC
Ветер 8 Узел от восточный, изменяющийся между восточно-северо-восточный и юго-юго-восточный
Температура 28°C
Влажность 37%
Давление 1009 hPa
Видимость: 32.2 км
Отдельные облака на высоте 12000 фута
Рассеянная облачность на высоте 21000 фута

METAR: CZFN 182300Z 09008KT 070V150 20SM SCT120 BKN210 28/12 A2981 RMK AC4CI1 28.5 / 9.9 / TR / LAST STFD OBS/NEXT 191500Z SLP099 DENSITY ALT 2100FT

Время: 06:14 (12:14 UTC)


TAF: отсутствует

Метеонаблюдения и прогнозы для более 4000 аэропортов (сводки METAR и TAF).

Имеющиеся станции представлены на карте желтыми и красными точками.

Чтобы увидеть название станции, наведите на нее мышь.

Затем щелкните, чтобы увидеть метеонаблюдения и метеопрогнозы.

Управление картой: чтобы увеличить масштаб, щелкните зеленые кнопки с черным крестиком; чтобы уменьшить масштаб, щелкните зеленую кнопку с тире; для просмотра соседних карт щелкайте зеленые стрелки.


METAR-TAF: